Time;durP1;ratioP1;P1;durP2;ratioP2;P2;SDS_P1;SDS_P2;PMS_P1;PMS_P2;Temp;Humidity;BMP_temperature;BMP_pressure;BME280_temperature;BME280_humidity;BME280_pressure;Samples;Min_cycle;Max_cycle;Signal;HPM_P1;HPM_P2
2023/03/27 00:00:31;;;;;;;5.90;2.20;;;;;;;6.34;83.41;99165.57;105483;1251;74337;-65
2023/03/27 00:03:52;;;;;;;;;;;;;;;;;;;;;
2023/03/27 00:07:43;;;;;;;6.40;2.20;;;;;;;6.23;83.92;99168.75;105563;1251;73713;-66
2023/03/27 00:11:26;;;;;;;6.70;2.50;;;;;;;6.22;84.42;99171.73;105394;1257;69204;-63
2023/03/27 00:15:14;;;;;;;6.00;2.80;;;;;;;6.22;84.62;99171.24;105436;1251;69151;-62
2023/03/27 00:18:54;;;;;;;7.80;2.90;;;;;;;6.19;84.83;99176.71;105419;1256;73393;-63
2023/03/27 00:22:43;;;;;;;6.30;2.60;;;;;;;6.12;85.21;99172.65;105474;1256;83585;-64
2023/03/27 00:26:21;;;;;;;;;;;;;;;;;;;;;
2023/03/27 00:29:42;;;;;;;;;;;;;;;;;;;;;
2023/03/27 00:33:18;;;;;;;;;;;;;;;;;;;;;
2023/03/27 00:37:06;;;;;;;;;;;;;;;;;;;;;
2023/03/27 00:40:56;;;;;;;;;;;;;;;;;;;;;
2023/03/27 00:44:46;;;;;;;11.90;6.60;;;;;;;6.07;86.42;99182.38;105422;1254;72444;-65
2023/03/27 00:48:28;;;;;;;14.80;7.60;;;;;;;6.08;86.78;99185.11;105321;1252;69198;-66
2023/03/27 00:52:20;;;;;;;15.60;7.40;;;;;;;6.07;86.86;99187.94;105318;1254;69190;-64
2023/03/27 00:56:08;;;;;;;13.70;7.20;;;;;;;5.97;86.52;99192.46;105528;1256;73060;-63
2023/03/27 01:03:46;;;;;;;18.90;9.30;;;;;;;5.57;86.20;99192.52;105445;1254;74463;-63
2023/03/27 01:07:27;;;;;;;;;;;;;;;;;;;;;
2023/03/27 01:11:05;;;;;;;17.30;7.80;;;;;;;5.33;86.71;99191.28;105467;1254;69135;-64
2023/03/27 01:14:53;;;;;;;17.90;8.20;;;;;;;5.25;86.79;99186.19;105598;1254;74037;-63
2023/03/27 01:18:53;;;;;;;19.30;7.60;;;;;;;5.21;87.15;99189.45;105056;1260;86144;-65
2023/03/27 01:22:49;;;;;;;18.80;6.60;;;;;;;5.13;87.27;99195.95;104535;1270;73604;-63
2023/03/27 01:35:24;;;;;;;18.10;6.10;;;;;;;4.88;87.24;99199.55;101702;1300;604244;-63
2023/03/27 01:54:31;;;;;;;13.40;4.30;;;;;;;4.48;87.18;99206.55;102111;1292;601883;-66
2023/03/27 01:58:12;;;;;;;;;;;;;;;;;;;;;
2023/03/27 02:01:51;;;;;;;12.20;4.10;;;;;;;4.30;87.46;99211.08;104741;1267;69138;-63
2023/03/27 02:05:31;;;;;;;12.80;4.40;;;;;;;4.31;87.98;99224.17;104753;1267;72543;-64
2023/03/27 02:09:25;;;;;;;17.20;4.90;;;;;;;4.33;87.90;99241.78;100780;1266;82606;-66
2023/03/27 02:13:17;;;;;;;14.10;4.30;;;;;;;4.33;87.84;99245.41;104429;1273;69305;-67
2023/03/27 02:16:54;;;;;;;;;;;;;;;;;;;;;
2023/03/27 02:20:41;;;;;;;13.10;3.40;;;;;;;4.29;87.44;99252.98;103784;1278;72090;-69
2023/03/27 02:24:30;;;;;;;12.50;3.20;;;;;;;4.20;87.28;99253.91;103510;1280;83228;-63
2023/03/27 02:28:20;;;;;;;11.50;3.10;;;;;;;4.10;87.03;99259.91;103153;1287;72995;-65
2023/03/27 02:32:18;;;;;;;9.80;2.70;;;;;;;4.01;86.87;99263.11;104285;1274;69429;-65
2023/03/27 02:44:02;;;;;;;11.80;3.00;;;;;;;3.84;86.37;99281.73;102466;1289;600208;-65
2023/03/27 02:48:04;;;;;;;9.00;2.00;;;;;;;3.74;86.61;99283.38;104167;1272;69218;-66
2023/03/27 02:51:45;;;;;;;7.70;2.60;;;;;;;3.65;86.58;99282.07;103592;1281;69230;-64
2023/03/27 02:55:34;;;;;;;7.90;2.20;;;;;;;3.58;87.03;99294.68;102900;1288;72436;-66
2023/03/27 02:59:34;;;;;;;8.60;2.40;;;;;;;3.49;87.07;99304.61;98937;1290;82860;-65
2023/03/27 03:03:19;;;;;;;7.60;2.10;;;;;;;3.43;86.88;99318.40;102849;1289;69719;-65
2023/03/27 03:07:07;;;;;;;9.60;3.30;;;;;;;3.43;87.07;99325.32;102768;1289;69412;-64
2023/03/27 03:18:29;;;;;;;;;;;;;;;;;;;;;
2023/03/27 03:22:31;;;;;;;12.20;5.30;;;;;;;3.11;87.22;99353.52;102368;1295;69249;-64
2023/03/27 03:25:45;;;;;;;;;;;;;;;;;;;;;
2023/03/27 03:29:37;;;;;;;7.00;3.40;;;;;;;3.07;87.34;99367.95;103217;1297;72341;-64
2023/03/27 03:37:37;;;;;;;29.00;11.50;;;;;;;3.01;87.28;99376.38;103714;1280;73897;-66
2023/03/27 03:41:23;;;;;;;45.00;21.00;;;;;;;2.92;87.32;99385.39;103889;1282;69311;-65
2023/03/27 03:45:13;;;;;;;12.60;5.60;;;;;;;2.82;87.23;99390.95;103754;1279;69291;-65
2023/03/27 03:48:55;;;;;;;12.70;6.20;;;;;;;2.77;87.20;99396.56;103704;1281;74171;-67
2023/03/27 03:52:30;;;;;;;19.50;6.60;;;;;;;2.70;86.83;99409.15;103523;1275;83457;-65
2023/03/27 03:56:19;;;;;;;14.00;3.70;;;;;;;2.63;86.44;99417.74;104236;1282;73876;-64
2023/03/27 04:00:10;;;;;;;13.50;4.80;;;;;;;2.57;86.29;99428.04;104311;1276;69221;-63
2023/03/27 04:04:08;;;;;;;13.70;6.70;;;;;;;2.55;86.69;99430.14;103854;1280;69367;-67
2023/03/27 04:07:58;;;;;;;33.20;11.00;;;;;;;2.56;87.02;99436.52;104009;1289;73480;-63
2023/03/27 04:11:45;;;;;;;20.00;7.50;;;;;;;2.56;86.92;99443.74;103819;1281;83458;-67
2023/03/27 04:15:37;;;;;;;12.80;4.10;;;;;;;2.56;87.10;99448.23;103277;1284;73805;-67
2023/03/27 04:20:06;;;;;;;20.40;6.20;;;;;;;2.52;86.43;99460.05;101932;1297;604003;-69
2023/03/27 04:24:01;;;;;;;35.60;10.50;;;;;;;2.46;86.54;99469.30;104647;1266;69192;-68
2023/03/27 04:27:42;;;;;;;15.30;6.20;;;;;;;2.43;86.71;99479.17;104396;1270;69082;-67
2023/03/27 04:31:33;;;;;;;6.80;2.50;;;;;;;2.40;86.44;99485.95;104539;1271;72563;-67
2023/03/27 04:35:20;;;;;;;8.60;2.80;;;;;;;2.29;86.17;99486.33;100414;1267;83735;-67
2023/03/27 04:39:16;;;;;;;19.10;6.80;;;;;;;2.15;86.28;99492.09;104736;1263;69189;-69
2023/03/27 04:43:01;;;;;;;;;;;;;;;;;;;;;
2023/03/27 04:46:53;;;;;;;96.00;35.60;;;;;;;1.99;86.78;99498.91;104607;1264;72704;-65
2023/03/27 04:50:42;;;;;;;68.30;29.20;;;;;;;1.93;87.02;99502.27;104677;1275;81766;-65
2023/03/27 04:54:31;;;;;;;62.30;20.90;;;;;;;1.89;87.13;99509.57;104584;1264;72866;-63
2023/03/27 05:02:08;;;;;;;;;;;;;;;;;;;;;
2023/03/27 05:06:04;;;;;;;73.40;28.10;;;;;;;1.86;86.92;99533.05;104776;1261;73348;-66
2023/03/27 05:09:54;;;;;;;48.70;19.20;;;;;;;1.85;87.17;99544.95;107850;1260;84768;-66
2023/03/27 05:13:56;;;;;;;;;;;;;;;;;;;;;
2023/03/27 05:17:25;;;;;;;;;;;;;;;;;;;;;
2023/03/27 05:21:15;;;;;;;32.40;12.70;;;;;;;1.92;88.20;99559.14;104789;1263;69216;-67
2023/03/27 05:25:05;;;;;;;24.90;9.80;;;;;;;1.94;88.30;99569.63;104922;1261;73215;-67
2023/03/27 05:28:54;;;;;;;39.90;17.00;;;;;;;1.93;88.24;99578.95;105186;1254;82947;-69
2023/03/27 05:32:44;;;;;;;28.90;12.90;;;;;;;1.95;88.49;99582.88;105173;1255;73766;-66
2023/03/27 05:36:34;;;;;;;34.20;11.50;;;;;;;1.96;88.25;99582.52;105097;1255;69145;-65
2023/03/27 05:40:14;;;;;;;13.90;5.10;;;;;;;2.01;88.25;99588.64;105148;1259;69301;-65
2023/03/27 05:44:04;;;;;;;18.80;6.10;;;;;;;2.09;87.28;99595.77;105241;1259;72251;-73
2023/03/27 05:47:51;;;;;;;;;;;;;;;;;;;;;
2023/03/27 05:55:34;;;;;;;;;;;;;;;;;;;;;
2023/03/27 05:58:59;;;;;;;;;;;;;;;;;;;;;
2023/03/27 06:02:44;;;;;;;;;;;;;;;;;;;;;
2023/03/27 06:06:06;;;;;;;14.30;4.00;;;;;;;2.05;84.66;99655.29;105052;1256;82145;-63
2023/03/27 06:09:26;;;;;;;33.30;10.70;;;;;;;2.00;84.45;99661.03;105292;1257;73897;-61
2023/03/27 06:13:11;;;;;;;;;;;;;;;;;;;;;
2023/03/27 06:16:51;;;;;;;23.30;7.70;;;;;;;2.04;83.91;99677.86;105166;1260;69933;-63
2023/03/27 06:20:38;;;;;;;22.00;8.50;;;;;;;2.08;83.30;99691.42;105240;1258;73347;-64
2023/03/27 06:23:52;;;;;;;11.90;4.00;;;;;;;2.06;83.04;99697.48;105334;1264;83087;-65
2023/03/27 06:27:15;;;;;;;;;;;;;;;;;;;;;
2023/03/27 06:30:39;;;;;;;;;;;;;;;;;;;;;
2023/03/27 06:34:17;;;;;;;;;;;;;;;;;;;;;
2023/03/27 06:41:46;;;;;;;9.10;3.60;;;;;;;2.05;82.48;99713.01;105163;1260;83696;-62
2023/03/27 06:45:11;;;;;;;11.30;4.50;;;;;;;2.07;81.98;99723.15;105206;1257;73815;-63
2023/03/27 06:48:46;;;;;;;;;;;;;;;;;;;;;
2023/03/27 06:52:01;;;;;;;;;;;;;;;;;;;;;
2023/03/27 06:55:33;;;;;;;;;;;;;;;;;;;;;
2023/03/27 06:58:47;;;;;;;10.90;4.80;;;;;;;2.23;81.23;99738.61;105291;1259;83437;-64
2023/03/27 07:02:10;;;;;;;11.50;3.80;;;;;;;2.32;80.75;99744.17;105341;1256;71902;-62
2023/03/27 07:06:10;;;;;;;7.60;3.20;;;;;;;2.38;80.39;99744.27;104898;1261;69068;-65
2023/03/27 07:09:36;;;;;;;;;;;;;;;;;;;;;
2023/03/27 07:13:05;;;;;;;3.40;1.40;;;;;;;2.43;80.05;99750.39;105499;1259;72129;-65
2023/03/27 07:16:27;;;;;;;6.40;1.70;;;;;;;2.43;79.68;99760.21;105248;1256;82493;-64
2023/03/27 07:19:59;;;;;;;4.90;1.90;;;;;;;2.43;79.66;99765.23;105221;1257;73845;-63
2023/03/27 07:23:19;;;;;;;2.30;1.20;;;;;;;2.44;79.74;99771.95;105385;1257;69199;-65
2023/03/27 07:26:58;;;;;;;3.00;1.00;;;;;;;2.56;79.97;99782.13;105184;1259;69229;-63
2023/03/27 07:29:58;;;;;;;3.80;1.70;;;;;;;2.71;79.71;99782.08;105300;1257;72926;-63
2023/03/27 07:33:11;;;;;;;6.20;2.90;;;;;;;2.86;79.69;99780.81;105293;1260;83359;-64
2023/03/27 07:36:31;;;;;;;;;;;;;;;;;;;;;
2023/03/27 07:39:23;;;;;;;5.20;3.30;;;;;;;3.05;78.98;99783.63;105316;1257;69221;-61
2023/03/27 07:42:43;;;;;;;;;;;;;;;;;;;;;
2023/03/27 07:45:57;;;;;;;6.40;2.50;;;;;;;3.19;78.20;99790.83;105268;1257;73334;-61
2023/03/27 07:49:00;;;;;;;3.00;2.00;;;;;;;3.26;78.59;99798.11;105285;1259;82643;-63
2023/03/27 07:52:10;;;;;;;;;;;;;;;;;;;;;
2023/03/27 07:55:53;;;;;;;8.20;3.70;;;;;;;3.23;78.03;99807.48;105157;1257;69187;-63
2023/03/27 07:59:06;;;;;;;;;;;;;;;;;;;;;
2023/03/27 08:02:17;;;;;;;4.80;1.60;;;;;;;3.09;77.22;99819.98;105287;1260;72371;-62
2023/03/27 08:05:34;;;;;;;2.50;0.90;;;;;;;3.13;77.25;99819.90;105304;1260;84155;-63
2023/03/27 08:09:21;;;;;;;1.90;0.80;;;;;;;3.18;76.90;99822.43;105368;1257;72895;-61
2023/03/27 08:12:57;;;;;;;3.00;1.10;;;;;;;3.22;76.55;99825.13;105235;1256;69090;-63
2023/03/27 08:16:38;;;;;;;2.50;1.30;;;;;;;3.24;76.88;99832.52;105196;1256;69133;-62
2023/03/27 08:19:50;;;;;;;3.40;1.40;;;;;;;3.29;76.63;99832.44;105402;1259;73688;-62
2023/03/27 08:23:05;;;;;;;2.30;1.40;;;;;;;3.30;76.55;99833.28;105381;1256;82475;-62
2023/03/27 08:26:38;;;;;;;1.80;1.30;;;;;;;3.29;75.87;99844.52;104877;1263;73897;-62
2023/03/27 08:29:53;;;;;;;3.20;1.30;;;;;;;3.29;75.78;99846.92;105380;1256;69202;-62
2023/03/27 08:32:35;;;;;;;2.20;1.10;;;;;;;3.29;75.61;99856.08;105213;1261;69159;-62
2023/03/27 08:35:48;;;;;;;;;;;;;;;3.32;75.10;99857.41;105332;1257;73355;-60
2023/03/27 08:38:50;;;;;;;2.60;1.10;;;;;;;3.37;74.80;99859.92;105489;1257;83004;-62
2023/03/27 08:41:41;;;;;;;5.20;1.50;;;;;;;3.44;74.69;99863.28;105352;1257;73929;-62
2023/03/27 08:45:02;;;;;;;5.70;2.60;;;;;;;3.50;74.57;99862.13;105370;1260;69114;-62
2023/03/27 08:48:20;;;;;;;3.90;1.90;;;;;;;3.59;74.32;99868.54;105400;1258;69208;-62
2023/03/27 08:51:33;;;;;;;6.40;3.10;;;;;;;3.64;74.14;99873.12;105539;1254;72438;-62
2023/03/27 08:54:46;;;;;;;7.20;2.60;;;;;;;3.74;74.32;99876.05;105431;1256;83315;-62
2023/03/27 08:57:31;;;;;;;9.60;3.30;;;;;;;3.81;73.91;99875.59;105469;1259;73881;-62
2023/03/27 09:00:46;;;;;;;6.80;3.70;;;;;;;3.86;73.89;99878.09;105269;1261;69142;-62
2023/03/27 09:03:54;;;;;;;4.60;2.50;;;;;;;3.85;73.39;99878.12;105356;1254;69306;-63
2023/03/27 09:06:43;;;;;;;4.00;1.40;;;;;;;3.90;73.66;99881.48;105393;1257;73306;-63
2023/03/27 09:09:57;;;;;;;5.50;2.30;;;;;;;4.02;73.57;99884.21;105367;1256;82506;-61
2023/03/27 09:13:07;;;;;;;2.60;1.20;;;;;;;4.16;73.13;99887.58;105434;1259;72774;-62
2023/03/27 09:16:05;;;;;;;3.30;1.80;;;;;;;4.24;72.60;99895.36;104834;1262;69171;-62
2023/03/27 09:19:19;;;;;;;4.10;2.10;;;;;;;4.34;72.30;99899.84;104716;1267;69218;-61
2023/03/27 09:22:26;;;;;;;8.00;4.40;;;;;;;4.45;72.10;99893.75;104687;1266;71427;-61
2023/03/27 09:25:51;;;;;;;7.40;3.00;;;;;;;4.54;71.54;99895.81;104371;1264;82503;-62
2023/03/27 09:29:24;;;;;;;7.20;3.20;;;;;;;4.63;71.45;99894.06;104721;1264;73539;-63
2023/03/27 09:32:10;;;;;;;9.40;4.40;;;;;;;4.75;71.27;99898.14;104712;1263;69284;-63
2023/03/27 09:34:54;;;;;;;9.10;3.70;;;;;;;4.94;71.38;99902.25;104827;1267;69278;-62
2023/03/27 09:37:33;;;;;;;15.30;9.30;;;;;;;5.16;71.03;99902.77;104770;1267;71717;-63
2023/03/27 09:40:41;;;;;;;5.80;3.20;;;;;;;5.39;70.68;99900.52;104688;1264;83473;-61
2023/03/27 09:43:34;;;;;;;3.60;2.10;;;;;;;5.46;70.00;99899.66;104621;1266;73966;-61
2023/03/27 09:46:18;;;;;;;8.20;3.30;;;;;;;5.44;69.49;99905.77;104743;1263;69393;-62
2023/03/27 09:49:26;;;;;;;5.70;2.10;;;;;;;5.37;69.27;99911.83;104751;1268;69177;-62
2023/03/27 09:52:09;;;;;;;3.20;1.90;;;;;;;5.32;68.97;99916.10;104480;1263;72393;-62
2023/03/27 09:55:06;;;;;;;2.20;1.20;;;;;;;5.35;68.79;99922.27;104817;1262;81465;-58
2023/03/27 09:57:45;;;;;;;3.10;1.80;;;;;;;5.37;68.22;99914.58;104819;1262;72798;-58
2023/03/27 10:00:33;;;;;;;3.00;1.40;;;;;;;5.57;68.44;99915.84;104746;1262;69149;-58
2023/03/27 10:03:10;;;;;;;5.30;2.70;;;;;;;5.98;68.77;99910.86;104820;1263;69380;-58
2023/03/27 10:06:06;;;;;;;3.60;1.30;;;;;;;6.31;68.75;99914.67;105131;1261;74077;-58
2023/03/27 10:09:11;;;;;;;3.00;1.10;;;;;;;6.42;67.56;99919.23;104832;1263;83931;-58
2023/03/27 10:11:45;;;;;;;3.00;1.60;;;;;;;6.39;66.72;99920.00;104808;1266;72513;-57
2023/03/27 10:14:29;;;;;;;5.20;1.70;;;;;;;6.31;66.40;99926.64;104782;1263;69986;-58
2023/03/27 10:17:10;;;;;;;5.10;2.50;;;;;;;6.27;66.16;99931.79;104900;1268;69330;-58
2023/03/27 10:19:53;;;;;;;8.90;5.50;;;;;;;6.33;66.04;99930.95;104778;1267;73282;-58
2023/03/27 10:22:54;;;;;;;;;;;;;;;;;;;;;
2023/03/27 10:25:53;;;;;;;5.60;3.30;;;;;;;6.77;66.13;99936.48;104799;1263;74130;-58
2023/03/27 10:28:37;;;;;;;4.00;2.00;;;;;;;7.11;65.60;99944.34;105011;1267;69317;-58
2023/03/27 10:31:33;;;;;;;1.40;1.00;;;;;;;7.12;65.30;99948.45;105332;1256;69087;-58
2023/03/27 10:34:51;;;;;;;2.40;1.20;;;;;;;6.99;64.64;99958.78;105392;1256;74091;-58
2023/03/27 10:37:50;;;;;;;2.00;1.10;;;;;;;6.74;64.22;99962.27;105334;1258;83219;-58
2023/03/27 10:40:47;;;;;;;2.70;1.50;;;;;;;6.62;64.24;99966.23;105312;1254;74166;-58
2023/03/27 10:43:38;;;;;;;1.20;0.60;;;;;;;6.62;64.09;99970.06;105486;1256;69126;-57
2023/03/27 10:46:39;;;;;;;2.70;1.20;;;;;;;6.46;63.89;99970.85;105449;1255;68302;-58
2023/03/27 10:49:50;;;;;;;2.70;1.40;;;;;;;6.31;63.82;99974.04;105460;1259;73045;-57
2023/03/27 10:52:56;;;;;;;5.70;3.10;;;;;;;6.07;62.63;99972.23;105260;1255;82681;-55
2023/03/27 10:55:53;;;;;;;6.30;2.60;;;;;;;6.15;62.88;99976.00;105354;1258;72826;-58
2023/03/27 10:58:47;;;;;;;2.40;1.50;;;;;;;6.24;62.67;99984.25;105414;1256;69210;-54
2023/03/27 11:01:44;;;;;;;2.00;1.30;;;;;;;6.20;62.43;99984.20;105387;1255;69582;-57
2023/03/27 11:04:54;;;;;;;1.60;1.10;;;;;;;6.05;61.86;99987.17;105530;1256;73773;-57
2023/03/27 11:07:52;;;;;;;5.80;3.50;;;;;;;5.95;61.84;99989.83;105441;1254;83186;-56
2023/03/27 11:10:38;;;;;;;3.20;1.70;;;;;;;6.29;61.79;99998.71;105321;1254;72811;-57
2023/03/27 11:13:25;;;;;;;2.20;1.10;;;;;;;6.63;61.91;99999.20;105334;1256;69190;-58
2023/03/27 11:16:23;;;;;;;2.40;0.90;;;;;;;6.93;61.65;99998.02;105354;1256;69018;-55
2023/03/27 11:19:24;;;;;;;;;;;;;;;;;;;;;
2023/03/27 11:22:22;;;;;;;1.70;0.90;;;;;;;6.93;60.45;100007.73;105230;1259;83684;-56
2023/03/27 11:25:37;;;;;;;1.40;0.70;;;;;;;7.11;60.34;100004.27;105281;1256;73818;-59
2023/03/27 11:29:11;;;;;;;2.10;1.00;;;;;;;7.29;59.53;100005.31;104740;1263;69291;-57
2023/03/27 11:31:59;;;;;;;2.00;1.10;;;;;;;7.28;58.80;100008.66;104330;1273;69267;-58
2023/03/27 11:35:26;;;;;;;1.60;0.80;;;;;;;7.33;59.08;100011.64;104430;1271;74222;-58
2023/03/27 11:39:14;;;;;;;2.30;1.60;;;;;;;7.40;59.07;100019.23;103813;1277;84116;-59
2023/03/27 11:42:28;;;;;;;4.00;1.60;;;;;;;7.59;58.92;100021.45;103971;1274;73910;-58
2023/03/27 11:45:24;;;;;;;;;;;;;;;7.62;58.89;100021.00;104021;1274;69150;-60
2023/03/27 11:48:28;;;;;;;9.80;5.00;;;;;;;7.61;58.67;100014.77;103946;1275;69300;-59
2023/03/27 11:51:18;;;;;;;1.70;0.80;;;;;;;7.53;58.45;100020.75;103895;1273;74151;-61
2023/03/27 11:54:56;;;;;;;1.20;0.60;;;;;;;7.24;57.42;100025.94;103928;1273;82587;-58
2023/03/27 11:57:49;;;;;;;;;;;;;;;;;;;;;
2023/03/27 12:01:36;;;;;;;1.80;0.60;;;;;;;6.72;56.91;100021.01;103544;1278;69151;-60
2023/03/27 12:04:36;;;;;;;1.70;0.40;;;;;;;6.95;57.04;100024.69;103371;1281;69316;-61
2023/03/27 12:08:16;;;;;;;0.50;0.40;;;;;;;7.30;56.79;100013.43;103890;1277;74023;-61
2023/03/27 12:11:35;;;;;;;2.30;0.80;;;;;;;7.29;56.10;100023.05;103484;1281;82639;-62
2023/03/27 12:14:36;;;;;;;0.80;0.60;;;;;;;7.63;56.51;100024.25;103530;1274;74717;-58
2023/03/27 12:17:51;;;;;;;1.00;0.40;;;;;;;8.62;57.11;100019.81;103985;1277;69448;-63
2023/03/27 12:20:42;;;;;;;1.30;0.90;;;;;;;9.31;55.04;100019.23;103368;1280;69301;-58
2023/03/27 12:23:56;;;;;;;4.00;0.70;;;;;;;9.81;54.73;100023.21;103393;1285;74092;-59
2023/03/27 12:27:12;;;;;;;1.70;0.50;;;;;;;10.33;53.57;100022.69;103429;1283;83698;-60
2023/03/27 12:30:52;;;;;;;0.80;0.50;;;;;;;10.12;52.10;100026.16;103044;1286;73550;-59
2023/03/27 12:34:04;;;;;;;1.60;0.50;;;;;;;9.30;50.16;100032.17;102488;1289;601617;-59
2023/03/27 12:36:48;;;;;;;1.50;0.50;;;;;;;9.01;51.10;100038.13;104833;1266;69247;-60
2023/03/27 12:39:27;;;;;;;1.10;0.40;;;;;;;9.01;50.58;100038.12;104794;1264;69112;-60
2023/03/27 12:42:42;;;;;;;1.40;0.60;;;;;;;9.52;50.71;100031.16;104837;1264;72458;-60
2023/03/27 12:45:31;;;;;;;3.10;1.60;;;;;;;10.28;51.02;100022.88;104857;1264;83218;-58
2023/03/27 12:48:14;;;;;;;4.60;1.40;;;;;;;11.11;50.86;100022.24;104812;1263;239387;-59
2023/03/27 12:50:55;;;;;;;11.20;6.00;;;;;;;11.62;49.63;100021.83;105046;1261;69507;-61
2023/03/27 12:53:25;;;;;;;4.70;3.20;;;;;;;11.74;47.46;100029.63;104824;1261;69192;-59
2023/03/27 12:56:19;;;;;;;4.30;2.80;;;;;;;11.70;47.15;100041.39;104882;1263;71499;-59
2023/03/27 12:58:56;;;;;;;7.50;3.60;;;;;;;11.67;46.82;100040.13;104949;1264;83395;-60
2023/03/27 13:01:49;;;;;;;9.80;5.60;;;;;;;11.12;45.82;100046.71;104801;1262;73407;-62
2023/03/27 13:04:45;;;;;;;6.50;3.90;;;;;;;10.99;46.65;100044.98;104733;1264;69182;-61
2023/03/27 13:07:38;;;;;;;4.60;3.10;;;;;;;11.26;46.74;100054.99;104890;1264;69268;-60
2023/03/27 13:10:37;;;;;;;3.00;1.60;;;;;;;10.89;45.10;100062.73;104937;1264;73299;-59
2023/03/27 13:13:21;;;;;;;4.60;2.70;;;;;;;10.77;45.34;100062.58;104749;1268;83510;-61
2023/03/27 13:16:10;;;;;;;1.80;0.70;;;;;;;11.19;46.13;100064.39;104818;1267;72809;-60
2023/03/27 13:18:51;;;;;;;1.00;0.80;;;;;;;11.58;44.92;100064.01;104837;1264;69176;-62
2023/03/27 13:22:06;;;;;;;3.10;1.90;;;;;;;11.77;45.08;100059.81;104931;1263;69140;-62
2023/03/27 13:24:56;;;;;;;1.60;0.80;;;;;;;12.40;45.47;100064.80;104853;1262;73990;-61
2023/03/27 13:27:43;;;;;;;1.90;0.80;;;;;;;12.59;44.09;100066.66;104904;1266;82590;-62
2023/03/27 13:30:43;;;;;;;1.10;0.70;;;;;;;12.37;42.47;100077.27;104857;1270;73956;-60
2023/03/27 13:34:36;;;;;;;0.90;0.50;;;;;;;11.72;41.62;100081.20;104745;1267;69141;-59
2023/03/27 13:37:13;;;;;;;0.50;0.40;;;;;;;11.55;41.52;100087.40;104557;1272;69208;-63
2023/03/27 13:40:00;;;;;;;0.90;0.40;;;;;;;11.64;41.45;100092.79;104346;1273;72594;-61
2023/03/27 13:42:38;;;;;;;0.90;0.50;;;;;;;11.78;41.38;100089.14;104331;1269;82586;-61
2023/03/27 13:45:17;;;;;;;0.90;0.50;;;;;;;11.97;41.04;100089.71;104244;1276;72786;-63
2023/03/27 13:48:23;;;;;;;0.80;0.50;;;;;;;12.05;40.73;100088.60;104317;1270;69172;-61
2023/03/27 13:51:41;;;;;;;0.70;0.30;;;;;;;12.17;40.34;100091.71;104347;1273;69214;-60
2023/03/27 13:54:44;;;;;;;0.60;0.50;;;;;;;12.24;40.41;100089.08;104056;1270;73228;-61
2023/03/27 13:57:49;;;;;;;2.50;0.50;;;;;;;12.49;41.09;100089.77;104380;1269;82628;-59
2023/03/27 14:00:43;;;;;;;0.70;0.40;;;;;;;12.81;39.49;100098.86;104727;1263;75401;-59
2023/03/27 14:03:35;;;;;;;0.80;0.50;;;;;;;12.84;39.45;100099.60;104788;1264;69736;-59
2023/03/27 14:06:09;;;;;;;3.30;0.80;;;;;;;12.98;39.10;100100.83;104712;1266;69331;-59
2023/03/27 14:08:50;;;;;;;2.90;0.60;;;;;;;13.03;38.61;100101.96;105048;1259;72367;-61
2023/03/27 14:12:43;;;;;;;1.30;0.90;;;;;;;13.27;38.88;100107.71;104974;1254;82668;-62
2023/03/27 14:15:40;;;;;;;2.40;0.80;;;;;;;13.45;38.73;100113.80;104820;1257;72857;-58
2023/03/27 14:19:00;;;;;;;1.60;0.90;;;;;;;13.98;39.27;100114.05;105225;1257;69050;-58
2023/03/27 14:21:48;;;;;;;1.20;1.00;;;;;;;14.25;38.91;100113.79;105287;1254;69189;-59
2023/03/27 14:24:36;;;;;;;2.10;1.00;;;;;;;14.58;38.42;100120.38;105248;1260;73288;-59
2023/03/27 14:27:16;;;;;;;10.40;5.60;;;;;;;14.74;38.08;100118.04;105252;1259;83296;-59
2023/03/27 14:29:48;;;;;;;2.60;1.40;;;;;;;14.88;38.06;100123.52;105226;1257;73994;-61
2023/03/27 14:32:18;;;;;;;10.20;5.20;;;;;;;14.99;37.64;100122.17;105218;1254;69183;-59
2023/03/27 14:34:52;;;;;;;9.90;4.60;;;;;;;14.96;37.63;100124.96;105263;1260;69304;-59
2023/03/27 14:37:35;;;;;;;4.80;2.90;;;;;;;14.87;37.13;100124.81;105539;1254;73308;-59
2023/03/27 14:40:20;;;;;;;1.50;0.90;;;;;;;14.90;36.96;100133.83;105310;1254;82491;-62
2023/03/27 14:42:50;;;;;;;2.10;1.20;;;;;;;14.94;36.73;100134.65;105245;1260;73261;-59
2023/03/27 14:45:22;;;;;;;1.50;0.90;;;;;;;15.15;36.67;100132.65;105501;1254;69195;-58
2023/03/27 14:48:16;;;;;;;3.00;2.20;;;;;;;15.34;36.50;100141.02;105301;1254;69079;-59
2023/03/27 14:50:52;;;;;;;5.70;3.60;;;;;;;15.57;36.61;100146.84;105949;1254;72623;-60
2023/03/27 14:53:27;;;;;;;1.70;1.00;;;;;;;15.54;36.20;100155.26;105417;1257;83360;-60
2023/03/27 14:56:10;;;;;;;2.50;1.40;;;;;;;15.52;35.85;100156.98;107146;1254;73868;-59
2023/03/27 14:58:57;;;;;;;4.40;1.90;;;;;;;15.04;35.34;100157.40;105546;1254;69175;-61
2023/03/27 15:01:30;;;;;;;2.50;1.60;;;;;;;13.92;34.91;100172.20;105502;1257;69192;-59
2023/03/27 15:04:01;;;;;;;3.60;2.20;;;;;;;12.88;35.04;100173.55;105402;1254;73289;-63
2023/03/27 15:06:36;;;;;;;4.30;2.90;;;;;;;12.07;35.37;100176.79;105277;1254;82948;-60
2023/03/27 15:09:38;;;;;;;3.80;2.60;;;;;;;11.63;35.69;100177.70;105547;1254;73749;-59
2023/03/27 15:12:47;;;;;;;3.40;2.20;;;;;;;11.58;36.11;100181.79;105352;1257;69204;-60
2023/03/27 15:15:33;;;;;;;3.20;1.60;;;;;;;11.86;36.53;100184.55;105386;1259;69182;-58
2023/03/27 15:18:07;;;;;;;2.90;1.90;;;;;;;12.19;36.52;100186.36;105359;1259;72258;-61
2023/03/27 15:20:39;;;;;;;3.10;1.60;;;;;;;11.91;36.06;100188.56;105528;1254;82621;-61
2023/03/27 15:23:28;;;;;;;1.30;1.00;;;;;;;11.61;36.02;100190.91;105319;1254;73998;-60
2023/03/27 15:26:31;;;;;;;1.70;0.90;;;;;;;11.51;35.87;100194.67;105542;1254;69198;-59
2023/03/27 15:29:13;;;;;;;2.40;1.50;;;;;;;11.15;36.10;100200.27;105544;1257;69182;-60
2023/03/27 15:31:47;;;;;;;2.50;1.20;;;;;;;11.24;36.33;100202.86;105502;1254;73465;-59
2023/03/27 15:34:22;;;;;;;2.10;1.00;;;;;;;11.42;36.48;100202.45;105326;1254;82484;-61
2023/03/27 15:36:56;;;;;;;1.30;0.90;;;;;;;11.69;36.45;100203.68;105482;1254;73866;-60
2023/03/27 15:39:29;;;;;;;1.90;1.20;;;;;;;12.03;36.36;100206.21;105550;1257;69087;-62
2023/03/27 15:42:05;;;;;;;4.00;1.90;;;;;;;12.17;36.23;100207.18;105506;1254;69621;-58
2023/03/27 15:44:38;;;;;;;1.50;0.90;;;;;;;12.19;36.04;100212.33;105547;1257;72328;-58
2023/03/27 15:47:29;;;;;;;1.50;0.90;;;;;;;11.94;35.78;100218.19;105514;1254;82489;-57
2023/03/27 15:50:25;;;;;;;2.60;1.30;;;;;;;11.44;35.63;100220.00;105459;1257;72367;-59
2023/03/27 15:53:02;;;;;;;2.70;1.50;;;;;;;10.94;35.94;100227.38;105496;1254;69077;-58
2023/03/27 15:55:37;;;;;;;2.90;1.30;;;;;;;10.51;35.69;100230.18;105369;1254;69159;-59
2023/03/27 15:58:49;;;;;;;2.10;0.90;;;;;;;10.05;35.92;100235.92;105267;1254;73150;-62
2023/03/27 16:01:38;;;;;;;1.50;1.00;;;;;;;9.72;36.38;100235.58;105371;1258;83356;-58
2023/03/27 16:04:37;;;;;;;2.80;1.10;;;;;;;9.42;36.24;100240.64;105429;1255;73758;-59
2023/03/27 16:07:46;;;;;;;2.90;1.40;;;;;;;9.17;36.54;100239.05;105386;1259;69176;-58
2023/03/27 16:10:39;;;;;;;;;;;;;;;9.05;37.02;100239.98;105541;1254;69170;-63
2023/03/27 16:13:31;;;;;;;3.30;1.60;;;;;;;8.88;37.18;100243.52;105540;1255;73393;-60
2023/03/27 16:16:46;;;;;;;4.50;2.20;;;;;;;8.70;37.30;100244.45;105540;1254;83354;-59
2023/03/27 16:19:47;;;;;;;2.60;1.20;;;;;;;8.51;37.51;100250.59;105229;1257;73813;-58
2023/03/27 16:22:36;;;;;;;2.40;1.20;;;;;;;8.36;37.37;100251.72;105460;1257;69931;-60
2023/03/27 16:25:42;;;;;;;2.20;1.20;;;;;;;8.23;37.46;100255.06;105621;1256;69217;-59
2023/03/27 16:28:35;;;;;;;2.10;1.20;;;;;;;8.16;37.47;100257.20;105628;1254;73305;-58
2023/03/27 16:31:53;;;;;;;4.60;1.50;;;;;;;8.03;37.61;100260.32;105387;1254;83339;-62
2023/03/27 16:34:51;;;;;;;;;;;;;;;;;;;;;
2023/03/27 16:37:59;;;;;;;2.30;1.50;;;;;;;7.68;37.88;100270.90;105659;1253;69176;-60
2023/03/27 16:41:23;;;;;;;2.10;1.60;;;;;;;7.36;37.86;100277.66;105560;1254;69095;-58
2023/03/27 16:44:33;;;;;;;3.20;1.80;;;;;;;7.07;38.30;100281.14;105540;1257;72245;-61
2023/03/27 16:47:48;;;;;;;2.60;1.50;;;;;;;6.77;38.11;100288.11;105583;1254;83302;-58
2023/03/27 16:51:01;;;;;;;3.20;1.70;;;;;;;6.54;38.85;100291.60;105512;1254;73825;-59
2023/03/27 16:54:29;;;;;;;3.20;1.70;;;;;;;6.28;39.23;100292.16;105370;1253;69265;-59
2023/03/27 16:57:57;;;;;;;8.20;3.60;;;;;;;6.08;39.32;100297.60;105340;1253;69116;-60
2023/03/27 17:01:26;;;;;;;14.30;7.40;;;;;;;5.81;39.67;100302.97;104845;1262;73474;-60
2023/03/27 17:04:47;;;;;;;;;;;;;;;;;;;;;
2023/03/27 17:08:15;;;;;;;;;;;;;;;;;;;;;